Tad, West Virginia
Current Conditions -  °F | °C
As of 7:54 AM on Wednesday 22 Oct 2014 (Local Time) from KCRW Reporting Station
Drizzle Drizzle  
Wind Chill: 41°   Ceiling: 900
Heat Index: 45°   Visibility: 8mi
Dew Point: 43°   Wind: 7mph
Humidity: 93%   Direction: 300°WNW
Pressure: 30.16"   Gusts: NA
Location:  38.33°N, 81.49°W
Report Text: KCRW 221154Z 30006KT 8SM -DZ FEW001 OVC009 07/06 A3016 RMK AO2 RAE00DZB00 SLP214 VLY FG P0000 60000 70031 T00720061 10078 20072 53011
Loading
Personal Weather Stations






























Interactive Weather Map
Tropical Storm Tracking
New forecast layout! Learn more

10-Day Weather Forecast

Advertisements
Track Severe Weather on mobile